sensor_id;sensor_type;location;lat;lon;timestamp;P1;durP1;ratioP1;P2;durP2;ratioP2
30127;SDS011;16942;53.196;6.592;2023-03-01T00:01:07;18.50;;;10.40;;
30127;SDS011;16942;53.196;6.592;2023-03-01T00:03:33;20.07;;;10.27;;
30127;SDS011;16942;53.196;6.592;2023-03-01T00:06:00;15.73;;;9.37;;
30127;SDS011;16942;53.196;6.592;2023-03-01T00:08:26;18.63;;;10.20;;
30127;SDS011;16942;53.196;6.592;2023-03-01T00:13:28;20.90;;;10.27;;
30127;SDS011;16942;53.196;6.592;2023-03-01T00:15:54;18.57;;;10.50;;
30127;SDS011;16942;53.196;6.592;2023-03-01T00:18:20;18.03;;;9.33;;
30127;SDS011;16942;53.196;6.592;2023-03-01T00:20:51;18.17;;;9.73;;
30127;SDS011;16942;53.196;6.592;2023-03-01T00:23:17;20.17;;;9.73;;
30127;SDS011;16942;53.196;6.592;2023-03-01T00:25:43;17.83;;;9.73;;
30127;SDS011;16942;53.196;6.592;2023-03-01T00:28:09;20.53;;;10.70;;
30127;SDS011;16942;53.196;6.592;2023-03-01T00:30:35;24.13;;;11.13;;
30127;SDS011;16942;53.196;6.592;2023-03-01T00:33:01;17.60;;;10.57;;
30127;SDS011;16942;53.196;6.592;2023-03-01T00:35:27;20.27;;;10.53;;
30127;SDS011;16942;53.196;6.592;2023-03-01T00:37:53;18.50;;;9.67;;
30127;SDS011;16942;53.196;6.592;2023-03-01T00:40:29;18.03;;;10.33;;
30127;SDS011;16942;53.196;6.592;2023-03-01T00:42:55;19.27;;;10.17;;
30127;SDS011;16942;53.196;6.592;2023-03-01T00:45:21;24.50;;;11.03;;
30127;SDS011;16942;53.196;6.592;2023-03-01T00:47:48;21.90;;;10.93;;
30127;SDS011;16942;53.196;6.592;2023-03-01T00:50:14;20.73;;;9.87;;
30127;SDS011;16942;53.196;6.592;2023-03-01T00:52:40;19.00;;;10.27;;
30127;SDS011;16942;53.196;6.592;2023-03-01T00:55:06;22.03;;;10.67;;
30127;SDS011;16942;53.196;6.592;2023-03-01T00:57:32;18.53;;;10.37;;
30127;SDS011;16942;53.196;6.592;2023-03-01T00:59:58;20.70;;;10.33;;
30127;SDS011;16942;53.196;6.592;2023-03-01T01:02:24;20.77;;;10.50;;
30127;SDS011;16942;53.196;6.592;2023-03-01T01:04:51;20.00;;;11.07;;
30127;SDS011;16942;53.196;6.592;2023-03-01T01:07:17;25.87;;;11.13;;
30127;SDS011;16942;53.196;6.592;2023-03-01T01:09:45;18.67;;;10.60;;
30127;SDS011;16942;53.196;6.592;2023-03-01T01:12:11;20.83;;;10.43;;
30127;SDS011;16942;53.196;6.592;2023-03-01T01:14:37;22.83;;;11.20;;
30127;SDS011;16942;53.196;6.592;2023-03-01T01:17:03;18.80;;;9.77;;
30127;SDS011;16942;53.196;6.592;2023-03-01T01:19:29;21.33;;;10.93;;
30127;SDS011;16942;53.196;6.592;2023-03-01T01:21:55;20.57;;;10.93;;
30127;SDS011;16942;53.196;6.592;2023-03-01T01:24:21;22.10;;;11.30;;
30127;SDS011;16942;53.196;6.592;2023-03-01T01:26:47;19.00;;;10.93;;
30127;SDS011;16942;53.196;6.592;2023-03-01T01:29:13;22.17;;;12.13;;
30127;SDS011;16942;53.196;6.592;2023-03-01T01:31:40;20.73;;;10.83;;
30127;SDS011;16942;53.196;6.592;2023-03-01T01:34:07;21.93;;;11.43;;
30127;SDS011;16942;53.196;6.592;2023-03-01T01:36:34;21.97;;;11.67;;
30127;SDS011;16942;53.196;6.592;2023-03-01T01:39:00;27.30;;;12.27;;
30127;SDS011;16942;53.196;6.592;2023-03-01T01:41:27;25.87;;;12.60;;
30127;SDS011;16942;53.196;6.592;2023-03-01T01:46:39;23.67;;;12.63;;
30127;SDS011;16942;53.196;6.592;2023-03-01T01:52:35;24.00;;;12.20;;
30127;SDS011;16942;53.196;6.592;2023-03-01T01:54:44;30.50;;;12.73;;
30127;SDS011;16942;53.196;6.592;2023-03-01T01:57:13;28.13;;;12.63;;
30127;SDS011;16942;53.196;6.592;2023-03-01T01:59:40;27.57;;;12.30;;
30127;SDS011;16942;53.196;6.592;2023-03-01T02:02:07;26.43;;;13.07;;
30127;SDS011;16942;53.196;6.592;2023-03-01T02:04:33;26.37;;;13.10;;
30127;SDS011;16942;53.196;6.592;2023-03-01T02:07:03;31.97;;;12.43;;
30127;SDS011;16942;53.196;6.592;2023-03-01T02:09:30;24.87;;;12.70;;
30127;SDS011;16942;53.196;6.592;2023-03-01T02:11:57;27.60;;;12.53;;
30127;SDS011;16942;53.196;6.592;2023-03-01T02:14:24;24.93;;;12.10;;
30127;SDS011;16942;53.196;6.592;2023-03-01T02:16:50;26.63;;;13.50;;
30127;SDS011;16942;53.196;6.592;2023-03-01T02:19:22;27.53;;;13.20;;
30127;SDS011;16942;53.196;6.592;2023-03-01T02:27:06;27.50;;;14.33;;
30127;SDS011;16942;53.196;6.592;2023-03-01T02:29:32;28.50;;;14.07;;
30127;SDS011;16942;53.196;6.592;2023-03-01T02:31:58;32.37;;;13.50;;
30127;SDS011;16942;53.196;6.592;2023-03-01T02:34:26;26.70;;;12.60;;
30127;SDS011;16942;53.196;6.592;2023-03-01T02:36:59;26.60;;;13.37;;
30127;SDS011;16942;53.196;6.592;2023-03-01T02:39:27;29.87;;;12.93;;
30127;SDS011;16942;53.196;6.592;2023-03-01T02:41:54;26.40;;;13.30;;
30127;SDS011;16942;53.196;6.592;2023-03-01T02:44:22;24.13;;;12.80;;
30127;SDS011;16942;53.196;6.592;2023-03-01T02:46:52;27.97;;;13.53;;
30127;SDS011;16942;53.196;6.592;2023-03-01T02:49:26;30.47;;;14.23;;
30127;SDS011;16942;53.196;6.592;2023-03-01T02:54:34;31.00;;;14.40;;
30127;SDS011;16942;53.196;6.592;2023-03-01T02:57:02;29.70;;;13.23;;
30127;SDS011;16942;53.196;6.592;2023-03-01T02:59:30;24.33;;;13.03;;
30127;SDS011;16942;53.196;6.592;2023-03-01T03:01:57;28.93;;;13.03;;
30127;SDS011;16942;53.196;6.592;2023-03-01T03:04:23;31.47;;;13.77;;
30127;SDS011;16942;53.196;6.592;2023-03-01T03:06:49;28.90;;;12.90;;
30127;SDS011;16942;53.196;6.592;2023-03-01T03:09:16;31.07;;;14.50;;
30127;SDS011;16942;53.196;6.592;2023-03-01T03:11:42;28.93;;;13.57;;
30127;SDS011;16942;53.196;6.592;2023-03-01T03:14:09;31.13;;;14.10;;
30127;SDS011;16942;53.196;6.592;2023-03-01T03:16:47;24.97;;;13.53;;
30127;SDS011;16942;53.196;6.592;2023-03-01T03:19:14;27.07;;;13.60;;
30127;SDS011;16942;53.196;6.592;2023-03-01T03:21:41;25.57;;;13.17;;
30127;SDS011;16942;53.196;6.592;2023-03-01T03:24:07;28.13;;;13.93;;
30127;SDS011;16942;53.196;6.592;2023-03-01T03:26:33;26.87;;;13.60;;
30127;SDS011;16942;53.196;6.592;2023-03-01T03:28:59;26.23;;;14.17;;
30127;SDS011;16942;53.196;6.592;2023-03-01T03:31:26;32.30;;;14.97;;
30127;SDS011;16942;53.196;6.592;2023-03-01T03:33:52;32.43;;;14.83;;
30127;SDS011;16942;53.196;6.592;2023-03-01T03:36:22;28.87;;;15.30;;
30127;SDS011;16942;53.196;6.592;2023-03-01T03:38:49;33.63;;;15.07;;
30127;SDS011;16942;53.196;6.592;2023-03-01T03:41:16;30.43;;;14.57;;
30127;SDS011;16942;53.196;6.592;2023-03-01T03:43:42;26.90;;;14.43;;
30127;SDS011;16942;53.196;6.592;2023-03-01T03:46:09;31.03;;;15.77;;
30127;SDS011;16942;53.196;6.592;2023-03-01T03:48:36;25.27;;;13.13;;
30127;SDS011;16942;53.196;6.592;2023-03-01T03:51:03;28.63;;;14.30;;
30127;SDS011;16942;53.196;6.592;2023-03-01T03:53:31;28.97;;;13.47;;
30127;SDS011;16942;53.196;6.592;2023-03-01T03:55:58;24.93;;;12.67;;
30127;SDS011;16942;53.196;6.592;2023-03-01T03:58:24;23.33;;;12.10;;
30127;SDS011;16942;53.196;6.592;2023-03-01T04:00:55;25.03;;;13.23;;
30127;SDS011;16942;53.196;6.592;2023-03-01T04:03:21;25.60;;;12.30;;
30127;SDS011;16942;53.196;6.592;2023-03-01T04:05:47;23.30;;;12.13;;
30127;SDS011;16942;53.196;6.592;2023-03-01T04:08:15;24.80;;;12.93;;
30127;SDS011;16942;53.196;6.592;2023-03-01T04:10:43;24.10;;;13.00;;
30127;SDS011;16942;53.196;6.592;2023-03-01T04:13:13;24.97;;;12.43;;
30127;SDS011;16942;53.196;6.592;2023-03-01T04:15:40;24.93;;;13.70;;
30127;SDS011;16942;53.196;6.592;2023-03-01T04:18:08;23.90;;;12.23;;
30127;SDS011;16942;53.196;6.592;2023-03-01T04:20:34;25.27;;;12.67;;
30127;SDS011;16942;53.196;6.592;2023-03-01T04:23:02;27.17;;;13.60;;
30127;SDS011;16942;53.196;6.592;2023-03-01T04:25:57;24.63;;;13.57;;
30127;SDS011;16942;53.196;6.592;2023-03-01T04:30:51;27.47;;;13.07;;
30127;SDS011;16942;53.196;6.592;2023-03-01T04:33:18;27.13;;;13.23;;
30127;SDS011;16942;53.196;6.592;2023-03-01T04:35:44;25.67;;;13.87;;
30127;SDS011;16942;53.196;6.592;2023-03-01T04:38:10;26.30;;;13.20;;
30127;SDS011;16942;53.196;6.592;2023-03-01T04:40:36;25.17;;;12.27;;
30127;SDS011;16942;53.196;6.592;2023-03-01T04:43:02;23.60;;;12.57;;
30127;SDS011;16942;53.196;6.592;2023-03-01T04:45:29;25.03;;;11.77;;
30127;SDS011;16942;53.196;6.592;2023-03-01T04:47:55;23.67;;;12.23;;
30127;SDS011;16942;53.196;6.592;2023-03-01T04:50:23;23.60;;;11.53;;
30127;SDS011;16942;53.196;6.592;2023-03-01T04:52:50;22.10;;;11.03;;
30127;SDS011;16942;53.196;6.592;2023-03-01T04:55:16;23.27;;;11.07;;
30127;SDS011;16942;53.196;6.592;2023-03-01T04:57:42;21.73;;;11.53;;
30127;SDS011;16942;53.196;6.592;2023-03-01T05:00:12;21.57;;;11.80;;
30127;SDS011;16942;53.196;6.592;2023-03-01T05:05:14;25.03;;;11.60;;
30127;SDS011;16942;53.196;6.592;2023-03-01T05:07:40;22.53;;;10.57;;
30127;SDS011;16942;53.196;6.592;2023-03-01T05:10:06;24.77;;;11.23;;
30127;SDS011;16942;53.196;6.592;2023-03-01T05:12:32;22.27;;;12.20;;
30127;SDS011;16942;53.196;6.592;2023-03-01T05:14:58;21.10;;;11.00;;
30127;SDS011;16942;53.196;6.592;2023-03-01T05:17:24;23.47;;;12.20;;
30127;SDS011;16942;53.196;6.592;2023-03-01T05:19:50;22.13;;;11.73;;
30127;SDS011;16942;53.196;6.592;2023-03-01T05:22:16;26.90;;;13.87;;
30127;SDS011;16942;53.196;6.592;2023-03-01T05:24:44;28.90;;;13.97;;
30127;SDS011;16942;53.196;6.592;2023-03-01T05:27:11;29.60;;;14.73;;
30127;SDS011;16942;53.196;6.592;2023-03-01T05:29:37;26.90;;;13.40;;
30127;SDS011;16942;53.196;6.592;2023-03-01T05:32:04;28.73;;;12.80;;
30127;SDS011;16942;53.196;6.592;2023-03-01T05:34:32;25.80;;;12.53;;
30127;SDS011;16942;53.196;6.592;2023-03-01T05:36:58;23.33;;;11.73;;
30127;SDS011;16942;53.196;6.592;2023-03-01T05:39:26;23.63;;;12.07;;
30127;SDS011;16942;53.196;6.592;2023-03-01T05:41:56;25.47;;;12.13;;
30127;SDS011;16942;53.196;6.592;2023-03-01T05:44:22;30.87;;;12.97;;
30127;SDS011;16942;53.196;6.592;2023-03-01T05:46:49;23.97;;;12.33;;
30127;SDS011;16942;53.196;6.592;2023-03-01T05:49:15;22.30;;;11.70;;
30127;SDS011;16942;53.196;6.592;2023-03-01T05:51:41;25.33;;;12.13;;
30127;SDS011;16942;53.196;6.592;2023-03-01T05:54:08;24.47;;;12.07;;
30127;SDS011;16942;53.196;6.592;2023-03-01T05:56:34;24.30;;;12.67;;
30127;SDS011;16942;53.196;6.592;2023-03-01T05:59:01;25.57;;;12.97;;
30127;SDS011;16942;53.196;6.592;2023-03-01T06:01:27;25.00;;;12.53;;
30127;SDS011;16942;53.196;6.592;2023-03-01T06:03:54;26.63;;;12.97;;
30127;SDS011;16942;53.196;6.592;2023-03-01T06:06:20;24.00;;;12.77;;
30127;SDS011;16942;53.196;6.592;2023-03-01T06:08:46;23.17;;;11.43;;
30127;SDS011;16942;53.196;6.592;2023-03-01T06:11:12;23.60;;;12.17;;
30127;SDS011;16942;53.196;6.592;2023-03-01T06:13:38;22.73;;;12.03;;
30127;SDS011;16942;53.196;6.592;2023-03-01T06:16:05;23.13;;;11.67;;
30127;SDS011;16942;53.196;6.592;2023-03-01T06:18:31;22.10;;;11.43;;
30127;SDS011;16942;53.196;6.592;2023-03-01T06:20:57;23.13;;;11.80;;
30127;SDS011;16942;53.196;6.592;2023-03-01T06:23:23;23.13;;;12.17;;
30127;SDS011;16942;53.196;6.592;2023-03-01T06:25:49;22.77;;;11.43;;
30127;SDS011;16942;53.196;6.592;2023-03-01T06:28:16;23.80;;;12.27;;
30127;SDS011;16942;53.196;6.592;2023-03-01T06:30:42;24.70;;;12.13;;
30127;SDS011;16942;53.196;6.592;2023-03-01T06:33:08;25.07;;;11.40;;
30127;SDS011;16942;53.196;6.592;2023-03-01T06:35:34;24.57;;;12.43;;
30127;SDS011;16942;53.196;6.592;2023-03-01T06:38:01;25.90;;;12.20;;
30127;SDS011;16942;53.196;6.592;2023-03-01T06:40:27;22.43;;;12.20;;
30127;SDS011;16942;53.196;6.592;2023-03-01T06:42:53;24.80;;;12.10;;
30127;SDS011;16942;53.196;6.592;2023-03-01T06:45:19;27.20;;;14.40;;
30127;SDS011;16942;53.196;6.592;2023-03-01T06:47:46;37.00;;;16.87;;
30127;SDS011;16942;53.196;6.592;2023-03-01T06:50:12;37.50;;;18.13;;
30127;SDS011;16942;53.196;6.592;2023-03-01T06:52:38;34.90;;;16.30;;
30127;SDS011;16942;53.196;6.592;2023-03-01T06:55:04;33.70;;;13.93;;
30127;SDS011;16942;53.196;6.592;2023-03-01T06:57:31;30.83;;;13.50;;
30127;SDS011;16942;53.196;6.592;2023-03-01T06:59:57;25.33;;;12.53;;
30127;SDS011;16942;53.196;6.592;2023-03-01T07:02:23;25.67;;;13.00;;
30127;SDS011;16942;53.196;6.592;2023-03-01T07:04:50;26.70;;;12.37;;
30127;SDS011;16942;53.196;6.592;2023-03-01T07:07:16;20.57;;;12.17;;
30127;SDS011;16942;53.196;6.592;2023-03-01T07:09:43;21.23;;;12.10;;
30127;SDS011;16942;53.196;6.592;2023-03-01T07:12:09;30.03;;;13.27;;
30127;SDS011;16942;53.196;6.592;2023-03-01T07:14:35;27.93;;;14.13;;
30127;SDS011;16942;53.196;6.592;2023-03-01T07:17:01;33.80;;;13.00;;
30127;SDS011;16942;53.196;6.592;2023-03-01T07:19:27;25.97;;;12.80;;
30127;SDS011;16942;53.196;6.592;2023-03-01T07:21:53;20.80;;;11.83;;
30127;SDS011;16942;53.196;6.592;2023-03-01T07:24:20;22.60;;;11.57;;
30127;SDS011;16942;53.196;6.592;2023-03-01T07:26:50;18.37;;;11.10;;
30127;SDS011;16942;53.196;6.592;2023-03-01T07:29:17;22.57;;;11.17;;
30127;SDS011;16942;53.196;6.592;2023-03-01T07:31:43;20.97;;;11.63;;
30127;SDS011;16942;53.196;6.592;2023-03-01T07:34:09;21.90;;;10.73;;
30127;SDS011;16942;53.196;6.592;2023-03-01T07:36:36;21.20;;;11.03;;
30127;SDS011;16942;53.196;6.592;2023-03-01T07:39:02;22.87;;;12.03;;
30127;SDS011;16942;53.196;6.592;2023-03-01T07:41:29;21.23;;;10.87;;
30127;SDS011;16942;53.196;6.592;2023-03-01T07:43:55;22.43;;;10.80;;
30127;SDS011;16942;53.196;6.592;2023-03-01T07:46:21;29.53;;;12.53;;
30127;SDS011;16942;53.196;6.592;2023-03-01T07:48:47;29.57;;;13.27;;
30127;SDS011;16942;53.196;6.592;2023-03-01T07:51:13;25.43;;;11.93;;
30127;SDS011;16942;53.196;6.592;2023-03-01T07:53:39;25.40;;;11.40;;
30127;SDS011;16942;53.196;6.592;2023-03-01T07:58:33;19.30;;;11.87;;
30127;SDS011;16942;53.196;6.592;2023-03-01T08:01:04;23.80;;;12.27;;
30127;SDS011;16942;53.196;6.592;2023-03-01T08:03:30;22.03;;;12.33;;
30127;SDS011;16942;53.196;6.592;2023-03-01T08:05:58;34.53;;;15.37;;
30127;SDS011;16942;53.196;6.592;2023-03-01T08:08:24;28.33;;;13.90;;
30127;SDS011;16942;53.196;6.592;2023-03-01T08:10:50;24.70;;;13.83;;
30127;SDS011;16942;53.196;6.592;2023-03-01T08:13:16;27.33;;;13.17;;
30127;SDS011;16942;53.196;6.592;2023-03-01T08:15:47;30.00;;;15.97;;
30127;SDS011;16942;53.196;6.592;2023-03-01T08:18:13;34.60;;;15.10;;
30127;SDS011;16942;53.196;6.592;2023-03-01T08:20:39;36.17;;;16.23;;
30127;SDS011;16942;53.196;6.592;2023-03-01T08:23:05;36.03;;;16.90;;
30127;SDS011;16942;53.196;6.592;2023-03-01T08:25:31;34.13;;;17.20;;
30127;SDS011;16942;53.196;6.592;2023-03-01T08:27:57;35.60;;;16.90;;
30127;SDS011;16942;53.196;6.592;2023-03-01T08:30:24;30.17;;;15.90;;
30127;SDS011;16942;53.196;6.592;2023-03-01T08:32:50;36.77;;;17.10;;
30127;SDS011;16942;53.196;6.592;2023-03-01T08:35:16;33.93;;;17.63;;
30127;SDS011;16942;53.196;6.592;2023-03-01T08:37:42;39.87;;;20.30;;
30127;SDS011;16942;53.196;6.592;2023-03-01T08:40:08;42.37;;;21.73;;
30127;SDS011;16942;53.196;6.592;2023-03-01T08:42:35;47.73;;;22.63;;
30127;SDS011;16942;53.196;6.592;2023-03-01T08:45:01;54.50;;;26.57;;
30127;SDS011;16942;53.196;6.592;2023-03-01T08:47:27;55.17;;;23.90;;
30127;SDS011;16942;53.196;6.592;2023-03-01T08:49:53;46.60;;;22.47;;
30127;SDS011;16942;53.196;6.592;2023-03-01T08:52:20;52.80;;;23.67;;
30127;SDS011;16942;53.196;6.592;2023-03-01T08:54:49;43.47;;;22.37;;
30127;SDS011;16942;53.196;6.592;2023-03-01T08:57:15;47.83;;;22.40;;
30127;SDS011;16942;53.196;6.592;2023-03-01T08:59:41;40.33;;;21.27;;
30127;SDS011;16942;53.196;6.592;2023-03-01T09:02:10;39.67;;;19.57;;
30127;SDS011;16942;53.196;6.592;2023-03-01T09:04:37;38.57;;;20.37;;
30127;SDS011;16942;53.196;6.592;2023-03-01T09:07:03;37.67;;;19.70;;
30127;SDS011;16942;53.196;6.592;2023-03-01T09:09:29;41.97;;;21.37;;
30127;SDS011;16942;53.196;6.592;2023-03-01T09:11:55;44.47;;;20.97;;
30127;SDS011;16942;53.196;6.592;2023-03-01T09:14:21;44.43;;;21.63;;
30127;SDS011;16942;53.196;6.592;2023-03-01T09:16:47;46.80;;;22.30;;
30127;SDS011;16942;53.196;6.592;2023-03-01T09:19:13;52.73;;;23.53;;
30127;SDS011;16942;53.196;6.592;2023-03-01T09:21:40;46.30;;;22.27;;
30127;SDS011;16942;53.196;6.592;2023-03-01T09:24:06;47.70;;;22.73;;
30127;SDS011;16942;53.196;6.592;2023-03-01T09:26:37;50.83;;;22.77;;
30127;SDS011;16942;53.196;6.592;2023-03-01T09:29:03;57.53;;;25.37;;
30127;SDS011;16942;53.196;6.592;2023-03-01T09:31:29;51.27;;;23.87;;
30127;SDS011;16942;53.196;6.592;2023-03-01T09:33:55;47.00;;;22.47;;
30127;SDS011;16942;53.196;6.592;2023-03-01T09:36:22;46.67;;;22.53;;
30127;SDS011;16942;53.196;6.592;2023-03-01T09:38:50;45.10;;;23.57;;
30127;SDS011;16942;53.196;6.592;2023-03-01T09:46:11;43.83;;;22.57;;
30127;SDS011;16942;53.196;6.592;2023-03-01T09:48:52;41.83;;;21.43;;
30127;SDS011;16942;53.196;6.592;2023-03-01T09:51:31;45.60;;;22.50;;
30127;SDS011;16942;53.196;6.592;2023-03-01T09:53:57;39.33;;;20.23;;
30127;SDS011;16942;53.196;6.592;2023-03-01T09:56:39;38.93;;;19.90;;
30127;SDS011;16942;53.196;6.592;2023-03-01T09:59:18;41.07;;;20.77;;
30127;SDS011;16942;53.196;6.592;2023-03-01T10:01:56;36.93;;;20.17;;
30127;SDS011;16942;53.196;6.592;2023-03-01T10:04:34;48.37;;;22.07;;
30127;SDS011;16942;53.196;6.592;2023-03-01T10:09:32;35.60;;;17.50;;
30127;SDS011;16942;53.196;6.592;2023-03-01T10:11:59;33.23;;;17.30;;
30127;SDS011;16942;53.196;6.592;2023-03-01T10:14:33;26.70;;;15.17;;
30127;SDS011;16942;53.196;6.592;2023-03-01T10:19:46;28.50;;;14.13;;
30127;SDS011;16942;53.196;6.592;2023-03-01T10:22:20;26.70;;;12.97;;
30127;SDS011;16942;53.196;6.592;2023-03-01T10:24:46;27.70;;;13.43;;
30127;SDS011;16942;53.196;6.592;2023-03-01T10:27:23;22.70;;;12.93;;
30127;SDS011;16942;53.196;6.592;2023-03-01T10:32:28;27.93;;;13.47;;
30127;SDS011;16942;53.196;6.592;2023-03-01T10:34:54;27.90;;;14.27;;
30127;SDS011;16942;53.196;6.592;2023-03-01T10:37:22;29.93;;;14.43;;
30127;SDS011;16942;53.196;6.592;2023-03-01T10:42:35;26.97;;;13.73;;
30127;SDS011;16942;53.196;6.592;2023-03-01T10:45:19;30.40;;;14.90;;
30127;SDS011;16942;53.196;6.592;2023-03-01T10:50:32;29.53;;;16.30;;
30127;SDS011;16942;53.196;6.592;2023-03-01T10:52:59;31.43;;;15.73;;
30127;SDS011;16942;53.196;6.592;2023-03-01T10:58:05;31.50;;;16.30;;
30127;SDS011;16942;53.196;6.592;2023-03-01T11:00:32;29.10;;;15.57;;
30127;SDS011;16942;53.196;6.592;2023-03-01T11:05:24;30.93;;;16.13;;
30127;SDS011;16942;53.196;6.592;2023-03-01T11:07:57;30.93;;;16.93;;
30127;SDS011;16942;53.196;6.592;2023-03-01T11:10:25;23.13;;;12.50;;
30127;SDS011;16942;53.196;6.592;2023-03-01T11:12:54;27.47;;;15.40;;
30127;SDS011;16942;53.196;6.592;2023-03-01T11:15:30;23.93;;;14.23;;
30127;SDS011;16942;53.196;6.592;2023-03-01T11:17:57;27.50;;;16.03;;
30127;SDS011;16942;53.196;6.592;2023-03-01T11:20:31;25.77;;;14.53;;
30127;SDS011;16942;53.196;6.592;2023-03-01T11:23:11;25.53;;;14.73;;
30127;SDS011;16942;53.196;6.592;2023-03-01T11:25:42;21.63;;;12.53;;
30127;SDS011;16942;53.196;6.592;2023-03-01T11:28:11;24.30;;;13.27;;
30127;SDS011;16942;53.196;6.592;2023-03-01T11:30:53;29.67;;;14.83;;
30127;SDS011;16942;53.196;6.592;2023-03-01T11:36:00;28.33;;;14.80;;
30127;SDS011;16942;53.196;6.592;2023-03-01T11:38:27;25.63;;;13.03;;
30127;SDS011;16942;53.196;6.592;2023-03-01T11:41:01;22.40;;;11.93;;
30127;SDS011;16942;53.196;6.592;2023-03-01T11:46:11;23.30;;;13.60;;
30127;SDS011;16942;53.196;6.592;2023-03-01T11:51:21;19.50;;;10.83;;
30127;SDS011;16942;53.196;6.592;2023-03-01T11:58:59;14.47;;;9.83;;
30127;SDS011;16942;53.196;6.592;2023-03-01T12:11:32;19.70;;;11.70;;
30127;SDS011;16942;53.196;6.592;2023-03-01T12:14:10;20.17;;;11.07;;
30127;SDS011;16942;53.196;6.592;2023-03-01T12:16:46;18.20;;;11.43;;
30127;SDS011;16942;53.196;6.592;2023-03-01T12:30:03;14.10;;;10.53;;
30127;SDS011;16942;53.196;6.592;2023-03-01T12:32:40;15.52;;;9.82;;
30127;SDS011;16942;53.196;6.592;2023-03-01T12:35:16;15.38;;;10.63;;
30127;SDS011;16942;53.196;6.592;2023-03-01T12:37:51;14.85;;;9.07;;
30127;SDS011;16942;53.196;6.592;2023-03-01T12:51:03;12.27;;;9.45;;
30127;SDS011;16942;53.196;6.592;2023-03-01T12:53:32;14.27;;;8.70;;
30127;SDS011;16942;53.196;6.592;2023-03-01T12:56:01;11.13;;;9.27;;
30127;SDS011;16942;53.196;6.592;2023-03-01T12:58:29;12.52;;;10.18;;
30127;SDS011;16942;53.196;6.592;2023-03-01T13:03:31;12.48;;;9.57;;
30127;SDS011;16942;53.196;6.592;2023-03-01T13:06:05;12.45;;;9.98;;
30127;SDS011;16942;53.196;6.592;2023-03-01T13:08:39;10.65;;;8.82;;
30127;SDS011;16942;53.196;6.592;2023-03-01T13:11:18;11.52;;;8.50;;
30127;SDS011;16942;53.196;6.592;2023-03-01T13:13:45;10.02;;;8.43;;
30127;SDS011;16942;53.196;6.592;2023-03-01T13:21:33;11.23;;;10.13;;
30127;SDS011;16942;53.196;6.592;2023-03-01T13:23:59;11.45;;;10.25;;
30127;SDS011;16942;53.196;6.592;2023-03-01T13:26:25;11.15;;;9.95;;
30127;SDS011;16942;53.196;6.592;2023-03-01T13:28:51;10.20;;;8.98;;
30127;SDS011;16942;53.196;6.592;2023-03-01T13:36:49;10.68;;;9.57;;
30127;SDS011;16942;53.196;6.592;2023-03-01T13:39:29;12.18;;;9.65;;
30127;SDS011;16942;53.196;6.592;2023-03-01T13:41:59;13.13;;;10.98;;
30127;SDS011;16942;53.196;6.592;2023-03-01T13:44:37;12.35;;;10.98;;
30127;SDS011;16942;53.196;6.592;2023-03-01T13:50:16;11.40;;;9.85;;
30127;SDS011;16942;53.196;6.592;2023-03-01T13:55:15;11.43;;;9.75;;
30127;SDS011;16942;53.196;6.592;2023-03-01T13:57:43;11.82;;;9.00;;
30127;SDS011;16942;53.196;6.592;2023-03-01T14:03:15;9.80;;;8.80;;
30127;SDS011;16942;53.196;6.592;2023-03-01T14:08:24;8.90;;;8.02;;
30127;SDS011;16942;53.196;6.592;2023-03-01T14:10:58;11.85;;;10.52;;
30127;SDS011;16942;53.196;6.592;2023-03-01T14:13:39;11.07;;;9.32;;
30127;SDS011;16942;53.196;6.592;2023-03-01T14:16:24;11.45;;;10.30;;
30127;SDS011;16942;53.196;6.592;2023-03-01T14:19:06;10.88;;;9.73;;
30127;SDS011;16942;53.196;6.592;2023-03-01T14:21:34;11.35;;;10.10;;
30127;SDS011;16942;53.196;6.592;2023-03-01T14:24:01;11.18;;;10.02;;
30127;SDS011;16942;53.196;6.592;2023-03-01T14:26:27;12.15;;;10.15;;
30127;SDS011;16942;53.196;6.592;2023-03-01T14:28:53;12.98;;;10.68;;
30127;SDS011;16942;53.196;6.592;2023-03-01T14:31:38;16.30;;;11.00;;
30127;SDS011;16942;53.196;6.592;2023-03-01T14:34:05;15.57;;;11.45;;
30127;SDS011;16942;53.196;6.592;2023-03-01T14:36:32;13.45;;;12.05;;
30127;SDS011;16942;53.196;6.592;2023-03-01T14:38:59;12.85;;;11.55;;
30127;SDS011;16942;53.196;6.592;2023-03-01T14:41:31;12.15;;;10.93;;
30127;SDS011;16942;53.196;6.592;2023-03-01T14:44:00;11.50;;;10.30;;
30127;SDS011;16942;53.196;6.592;2023-03-01T14:46:32;14.88;;;12.23;;
30127;SDS011;16942;53.196;6.592;2023-03-01T14:49:03;12.57;;;11.23;;
30127;SDS011;16942;53.196;6.592;2023-03-01T14:51:30;13.80;;;12.15;;
30127;SDS011;16942;53.196;6.592;2023-03-01T14:53:56;14.50;;;11.57;;
30127;SDS011;16942;53.196;6.592;2023-03-01T14:56:22;15.23;;;11.90;;
30127;SDS011;16942;53.196;6.592;2023-03-01T14:58:52;12.95;;;11.48;;
30127;SDS011;16942;53.196;6.592;2023-03-01T15:01:18;11.63;;;10.05;;
30127;SDS011;16942;53.196;6.592;2023-03-01T15:03:48;12.20;;;10.85;;
30127;SDS011;16942;53.196;6.592;2023-03-01T15:06:16;12.45;;;11.10;;
30127;SDS011;16942;53.196;6.592;2023-03-01T15:08:50;14.77;;;11.85;;
30127;SDS011;16942;53.196;6.592;2023-03-01T15:11:30;15.65;;;11.10;;
30127;SDS011;16942;53.196;6.592;2023-03-01T15:13:56;12.13;;;10.50;;
30127;SDS011;16942;53.196;6.592;2023-03-01T15:16:24;15.05;;;12.35;;
30127;SDS011;16942;53.196;6.592;2023-03-01T15:18:55;12.73;;;10.95;;
30127;SDS011;16942;53.196;6.592;2023-03-01T15:21:44;15.73;;;11.60;;
30127;SDS011;16942;53.196;6.592;2023-03-01T15:26:44;13.77;;;10.63;;
30127;SDS011;16942;53.196;6.592;2023-03-01T15:29:15;11.75;;;10.55;;
30127;SDS011;16942;53.196;6.592;2023-03-01T15:31:42;13.18;;;11.55;;
30127;SDS011;16942;53.196;6.592;2023-03-01T15:34:10;12.93;;;11.52;;
30127;SDS011;16942;53.196;6.592;2023-03-01T15:41:53;13.20;;;11.90;;
30127;SDS011;16942;53.196;6.592;2023-03-01T15:44:25;12.00;;;10.10;;
30127;SDS011;16942;53.196;6.592;2023-03-01T15:46:51;13.65;;;11.27;;
30127;SDS011;16942;53.196;6.592;2023-03-01T15:49:38;14.10;;;12.20;;
30127;SDS011;16942;53.196;6.592;2023-03-01T15:52:08;14.88;;;11.60;;
30127;SDS011;16942;53.196;6.592;2023-03-01T15:54:36;14.23;;;11.52;;
30127;SDS011;16942;53.196;6.592;2023-03-01T15:57:03;12.63;;;10.80;;
30127;SDS011;16942;53.196;6.592;2023-03-01T15:59:29;16.25;;;10.43;;
30127;SDS011;16942;53.196;6.592;2023-03-01T16:01:55;15.55;;;12.07;;
30127;SDS011;16942;53.196;6.592;2023-03-01T16:04:21;15.77;;;12.20;;
30127;SDS011;16942;53.196;6.592;2023-03-01T16:06:48;11.70;;;10.38;;
30127;SDS011;16942;53.196;6.592;2023-03-01T16:09:18;13.48;;;11.60;;
30127;SDS011;16942;53.196;6.592;2023-03-01T16:11:44;16.52;;;12.90;;
30127;SDS011;16942;53.196;6.592;2023-03-01T16:14:10;17.00;;;12.18;;
30127;SDS011;16942;53.196;6.592;2023-03-01T16:16:37;14.07;;;12.07;;
30127;SDS011;16942;53.196;6.592;2023-03-01T16:19:03;15.75;;;11.50;;
30127;SDS011;16942;53.196;6.592;2023-03-01T16:21:29;15.48;;;12.43;;
30127;SDS011;16942;53.196;6.592;2023-03-01T16:23:55;18.45;;;11.98;;
30127;SDS011;16942;53.196;6.592;2023-03-01T16:26:21;17.63;;;12.23;;
30127;SDS011;16942;53.196;6.592;2023-03-01T16:28:47;19.60;;;13.13;;
30127;SDS011;16942;53.196;6.592;2023-03-01T16:31:18;16.87;;;11.43;;
30127;SDS011;16942;53.196;6.592;2023-03-01T16:33:44;21.83;;;12.90;;